Time;durP1;ratioP1;P1;durP2;ratioP2;P2;SDS_P1;SDS_P2;PMS_P1;PMS_P2;Temp;Humidity;BMP_temperature;BMP_pressure;BME280_temperature;BME280_humidity;BME280_pressure;Samples;Min_cycle;Max_cycle;Signal;HPM_P1;HPM_P2
2021/12/06 00:01:08;;;;;;;111.90;45.97;;;;;;;;;;768032;181;919428;-74
2021/12/06 00:03:34;;;;;;;103.57;45.23;;;;;;;;;;777919;180;634791;-74
2021/12/06 00:06:00;;;;;;;109.37;50.30;;;;;;;;;;776235;180;617170;-73
2021/12/06 00:08:26;;;;;;;94.93;45.10;;;;;;;;;;772007;180;919065;-73
2021/12/06 00:10:52;;;;;;;97.27;44.57;;;;;;;;;;768173;180;923426;-73
2021/12/06 00:13:20;;;;;;;88.07;43.50;;;;;;;;;;772255;180;920318;-74
2021/12/06 00:15:45;;;;;;;94.00;42.77;;;;;;;;;;773272;179;919926;-74
2021/12/06 00:18:09;;;;;;;82.70;42.50;;;;;;;;;;770042;179;1042605;-74
2021/12/06 00:20:35;;;;;;;90.17;44.83;;;;;;;;;;765338;179;918306;-71
2021/12/06 00:23:01;;;;;;;107.40;50.10;;;;;;;;;;766941;180;918507;-73
2021/12/06 00:25:27;;;;;;;151.60;64.10;;;;;;;;;;767176;180;1022898;-73
2021/12/06 00:27:53;;;;;;;195.50;78.23;;;;;;;;;;772469;179;918731;-73
2021/12/06 00:30:19;;;;;;;167.90;70.10;;;;;;;;;;768886;180;922396;-74
2021/12/06 00:32:44;;;;;;;146.53;59.23;;;;;;;;;;771315;180;919206;-72
2021/12/06 00:35:18;;;;;;;88.23;42.10;;;;;;;;;;769787;180;922486;-73
2021/12/06 00:37:45;;;;;;;84.23;41.40;;;;;;;;;;775033;180;920190;-73
2021/12/06 00:40:06;;;;;;;95.10;43.77;;;;;;;;;;769603;180;917177;-73
2021/12/06 00:42:33;;;;;;;96.80;42.93;;;;;;;;;;762310;180;922132;-72
2021/12/06 00:44:57;;;;;;;84.50;44.00;;;;;;;;;;775799;180;913835;-73
2021/12/06 00:47:23;;;;;;;83.95;38.50;;;;;;;;;;768985;179;915454;-73
2021/12/06 00:49:50;;;;;;;95.87;41.73;;;;;;;;;;762337;181;915479;-73
2021/12/06 00:52:14;;;;;;;83.67;41.40;;;;;;;;;;775446;180;914724;-73
2021/12/06 00:54:40;;;;;;;90.10;42.55;;;;;;;;;;765519;180;912604;-73
2021/12/06 00:57:06;;;;;;;98.73;41.60;;;;;;;;;;763476;180;920227;-73
2021/12/06 00:59:32;;;;;;;103.97;45.17;;;;;;;;;;768741;180;918536;-73
2021/12/06 01:02:00;;;;;;;89.33;43.93;;;;;;;;;;775263;180;901160;-74
2021/12/06 01:04:24;;;;;;;89.67;41.07;;;;;;;;;;770140;180;912182;-74
2021/12/06 01:06:50;;;;;;;76.17;38.30;;;;;;;;;;767424;180;920273;-74
2021/12/06 01:09:16;;;;;;;88.18;42.60;;;;;;;;;;769940;180;918106;-73
2021/12/06 01:11:41;;;;;;;74.73;38.37;;;;;;;;;;766756;180;1020278;-74
2021/12/06 01:14:07;;;;;;;66.83;36.57;;;;;;;;;;763305;181;918839;-73
2021/12/06 01:16:33;;;;;;;86.93;40.40;;;;;;;;;;768214;179;897862;-74
2021/12/06 01:18:59;;;;;;;94.40;40.00;;;;;;;;;;762962;180;920951;-73
2021/12/06 01:21:38;;;;;;;70.37;39.00;;;;;;;;;;767334;180;919556;-73
2021/12/06 01:23:58;;;;;;;77.30;38.47;;;;;;;;;;759512;181;1014606;-74
2021/12/06 01:26:37;;;;;;;66.67;35.50;;;;;;;;;;775922;180;919233;-74
2021/12/06 01:34:09;;;;;;;80.03;38.80;;;;;;;;;;767611;181;919110;-74
2021/12/06 01:41:24;;;;;;;76.90;37.03;;;;;;;;;;767926;180;918387;-72
2021/12/06 01:43:56;;;;;;;85.20;39.73;;;;;;;;;;768181;180;918832;-74
2021/12/06 01:46:21;;;;;;;82.00;37.58;;;;;;;;;;770536;180;918983;-70
2021/12/06 01:48:47;;;;;;;74.60;39.50;;;;;;;;;;763992;183;919256;-73
2021/12/06 01:51:13;;;;;;;77.77;38.87;;;;;;;;;;760277;181;1020195;-74
2021/12/06 01:53:39;;;;;;;86.87;38.10;;;;;;;;;;766808;180;919211;-74
2021/12/06 01:56:05;;;;;;;86.60;39.43;;;;;;;;;;777268;180;919758;-73
2021/12/06 01:58:31;;;;;;;87.33;36.80;;;;;;;;;;770868;180;1020945;-73
2021/12/06 02:00:56;;;;;;;70.60;37.60;;;;;;;;;;768851;180;918866;-75
2021/12/06 02:03:22;;;;;;;72.43;35.97;;;;;;;;;;768759;180;1022694;-73
2021/12/06 02:05:48;;;;;;;78.87;34.70;;;;;;;;;;770263;180;918829;-74
2021/12/06 02:08:14;;;;;;;78.07;35.67;;;;;;;;;;771223;180;918751;-74
2021/12/06 02:10:40;;;;;;;71.43;36.67;;;;;;;;;;773939;180;919180;-74
2021/12/06 02:13:07;;;;;;;87.93;36.70;;;;;;;;;;768230;180;1021243;-73
2021/12/06 02:15:42;;;;;;;61.07;35.40;;;;;;;;;;763445;180;918116;-74
2021/12/06 02:18:11;;;;;;;73.17;34.97;;;;;;;;;;760918;181;1039626;-74
2021/12/06 02:20:44;;;;;;;83.57;37.17;;;;;;;;;;768699;180;918024;-71
2021/12/06 02:23:02;;;;;;;75.30;37.20;;;;;;;;;;771611;180;917960;-74
2021/12/06 02:25:28;;;;;;;82.87;37.40;;;;;;;;;;756510;181;918248;-75
2021/12/06 02:27:55;;;;;;;70.22;34.45;;;;;;;;;;766355;180;1124245;-74
2021/12/06 02:30:20;;;;;;;72.80;36.07;;;;;;;;;;775101;180;919453;-75
2021/12/06 02:32:46;;;;;;;68.47;36.00;;;;;;;;;;770888;180;918627;-75
2021/12/06 02:35:14;;;;;;;65.47;33.60;;;;;;;;;;769288;180;919261;-75
2021/12/06 02:37:37;;;;;;;71.47;34.30;;;;;;;;;;775687;179;920812;-75
2021/12/06 02:40:04;;;;;;;69.53;33.67;;;;;;;;;;769771;180;1020911;-75
2021/12/06 02:42:30;;;;;;;71.70;35.53;;;;;;;;;;764323;180;919174;-75
2021/12/06 02:44:57;;;;;;;72.70;36.55;;;;;;;;;;774008;180;918938;-74
2021/12/06 02:47:23;;;;;;;73.40;35.37;;;;;;;;;;775495;180;918819;-76
2021/12/06 02:49:48;;;;;;;68.23;33.67;;;;;;;;;;768734;179;919124;-75
2021/12/06 02:52:14;;;;;;;71.82;33.20;;;;;;;;;;764616;180;1021824;-77
2021/12/06 02:54:40;;;;;;;77.83;32.50;;;;;;;;;;770816;180;919843;-76
2021/12/06 02:57:32;;;;;;;64.17;34.60;;;;;;;;;;771222;180;918990;-77
2021/12/06 02:59:47;;;;;;;62.03;32.53;;;;;;;;;;766923;181;929803;-77
2021/12/06 03:02:13;;;;;;;76.90;34.00;;;;;;;;;;769599;180;1022762;-77
2021/12/06 03:04:39;;;;;;;70.37;33.57;;;;;;;;;;774750;180;1021136;-77
2021/12/06 03:07:05;;;;;;;76.50;36.90;;;;;;;;;;769915;180;919048;-77
2021/12/06 03:09:33;;;;;;;67.57;34.47;;;;;;;;;;768532;181;1021356;-77
2021/12/06 03:11:56;;;;;;;69.37;32.30;;;;;;;;;;774370;180;918022;-78
2021/12/06 03:14:22;;;;;;;74.87;34.67;;;;;;;;;;773020;180;919181;-78
2021/12/06 03:16:48;;;;;;;82.37;38.07;;;;;;;;;;766804;181;888274;-79
2021/12/06 03:19:15;;;;;;;76.17;36.10;;;;;;;;;;767211;180;1021029;-77
2021/12/06 03:21:40;;;;;;;87.27;36.23;;;;;;;;;;777434;180;631381;-79
2021/12/06 03:24:06;;;;;;;77.90;34.27;;;;;;;;;;773413;180;637236;-78
2021/12/06 03:26:33;;;;;;;95.00;35.57;;;;;;;;;;774748;180;629475;-79
2021/12/06 03:28:58;;;;;;;69.10;35.23;;;;;;;;;;779852;180;617012;-78
2021/12/06 03:31:24;;;;;;;81.50;39.47;;;;;;;;;;774158;180;629403;-79
2021/12/06 03:33:50;;;;;;;77.33;35.80;;;;;;;;;;774965;180;916269;-80
2021/12/06 03:36:16;;;;;;;83.03;40.17;;;;;;;;;;771890;181;918293;-78
2021/12/06 03:38:41;;;;;;;75.10;35.45;;;;;;;;;;770484;180;917503;-82
2021/12/06 03:41:07;;;;;;;84.00;35.90;;;;;;;;;;770412;180;938526;-82
2021/12/06 03:43:33;;;;;;;76.07;34.40;;;;;;;;;;759103;183;1026185;-81
2021/12/06 03:45:59;;;;;;;60.37;31.03;;;;;;;;;;774309;180;884590;-82
2021/12/06 03:48:25;;;;;;;82.13;37.67;;;;;;;;;;770262;180;1021429;-82
2021/12/06 03:50:51;;;;;;;67.97;33.57;;;;;;;;;;771907;180;1043056;-83
2021/12/06 03:53:17;;;;;;;61.13;31.00;;;;;;;;;;778861;180;868769;-82
2021/12/06 03:55:42;;;;;;;70.17;34.27;;;;;;;;;;770899;180;1022040;-82
2021/12/06 03:58:08;;;;;;;65.87;31.47;;;;;;;;;;773467;180;909195;-82
2021/12/06 04:00:34;;;;;;;72.57;34.17;;;;;;;;;;773525;180;918574;-81
2021/12/06 04:03:00;;;;;;;58.63;31.80;;;;;;;;;;772309;180;918759;-80
2021/12/06 04:05:26;;;;;;;71.65;35.85;;;;;;;;;;767588;181;819154;-80
2021/12/06 04:07:52;;;;;;;71.62;35.60;;;;;;;;;;775032;180;921858;-79
2021/12/06 04:10:18;;;;;;;72.90;33.73;;;;;;;;;;769053;180;918789;-80
2021/12/06 04:12:44;;;;;;;69.23;35.10;;;;;;;;;;767879;180;1124127;-81
2021/12/06 04:15:11;;;;;;;63.25;32.00;;;;;;;;;;763302;179;1123876;-80
2021/12/06 04:17:36;;;;;;;65.33;33.83;;;;;;;;;;772075;180;973088;-80
2021/12/06 04:20:02;;;;;;;66.67;34.87;;;;;;;;;;766789;180;1019399;-80
2021/12/06 04:22:27;;;;;;;68.20;35.28;;;;;;;;;;769328;180;1022883;-79
2021/12/06 04:24:53;;;;;;;73.47;35.70;;;;;;;;;;773256;180;1226207;-80
2021/12/06 04:27:21;;;;;;;105.60;46.10;;;;;;;;;;769458;180;882568;-79
2021/12/06 04:29:45;;;;;;;67.97;33.47;;;;;;;;;;767377;180;1054746;-81
2021/12/06 04:32:11;;;;;;;61.03;31.20;;;;;;;;;;770950;180;817597;-81
2021/12/06 04:34:37;;;;;;;60.53;33.97;;;;;;;;;;770866;180;828396;-80
2021/12/06 04:37:03;;;;;;;111.37;51.67;;;;;;;;;;745162;180;917071;-78
2021/12/06 04:39:29;;;;;;;93.83;47.10;;;;;;;;;;726531;189;911437;-77
2021/12/06 04:41:54;;;;;;;97.07;45.10;;;;;;;;;;732739;189;919836;-77
2021/12/06 04:44:20;;;;;;;218.43;87.60;;;;;;;;;;722650;189;916867;-76
2021/12/06 04:46:46;;;;;;;96.57;47.77;;;;;;;;;;723602;189;919226;-76
2021/12/06 04:49:13;;;;;;;88.35;40.75;;;;;;;;;;731637;189;911511;-75
2021/12/06 04:51:39;;;;;;;88.37;43.83;;;;;;;;;;723430;189;918752;-75
2021/12/06 04:54:04;;;;;;;77.23;39.40;;;;;;;;;;732296;189;635030;-77
2021/12/06 04:56:30;;;;;;;119.13;47.30;;;;;;;;;;736744;189;635605;-76
2021/12/06 04:59:12;;;;;;;135.30;57.57;;;;;;;;;;727328;189;918867;-74
2021/12/06 05:01:38;;;;;;;115.57;56.03;;;;;;;;;;722870;189;920782;-75
2021/12/06 05:04:03;;;;;;;100.97;50.50;;;;;;;;;;730309;189;682897;-76
2021/12/06 05:06:29;;;;;;;85.43;39.97;;;;;;;;;;728411;189;652767;-75
2021/12/06 05:08:55;;;;;;;88.03;42.13;;;;;;;;;;732445;189;920856;-76
2021/12/06 05:11:21;;;;;;;90.10;38.83;;;;;;;;;;722964;189;946627;-77
2021/12/06 05:13:47;;;;;;;87.87;40.40;;;;;;;;;;724707;189;919307;-77
2021/12/06 05:16:13;;;;;;;71.13;33.50;;;;;;;;;;733050;189;917152;-77
2021/12/06 05:18:39;;;;;;;77.18;34.53;;;;;;;;;;723762;189;920733;-76
2021/12/06 05:21:04;;;;;;;80.83;44.83;;;;;;;;;;726426;189;813472;-77
2021/12/06 05:23:30;;;;;;;71.83;36.90;;;;;;;;;;731783;189;631118;-77
2021/12/06 05:25:56;;;;;;;75.13;38.27;;;;;;;;;;731655;186;633731;-77
2021/12/06 05:28:26;;;;;;;69.70;32.80;;;;;;;;;;734424;189;636226;-77
2021/12/06 05:30:53;;;;;;;65.87;32.30;;;;;;;;;;727623;189;919042;-76
2021/12/06 05:33:27;;;;;;;65.77;32.80;;;;;;;;;;723319;189;918307;-78
2021/12/06 05:35:40;;;;;;;66.00;30.00;;;;;;;;;;714272;193;644910;-77
2021/12/06 05:38:05;;;;;;;74.90;35.33;;;;;;;;;;732568;189;920947;-77
2021/12/06 05:40:31;;;;;;;77.23;32.40;;;;;;;;;;736557;189;916156;-77
2021/12/06 05:42:57;;;;;;;81.27;38.73;;;;;;;;;;733244;189;762998;-76
2021/12/06 05:45:23;;;;;;;77.15;35.20;;;;;;;;;;726051;189;919012;-78
2021/12/06 05:47:49;;;;;;;79.13;33.90;;;;;;;;;;734053;189;816267;-78
2021/12/06 05:50:15;;;;;;;107.17;43.70;;;;;;;;;;728527;189;919411;-78
2021/12/06 05:52:40;;;;;;;82.90;39.47;;;;;;;;;;733627;189;917839;-78
2021/12/06 05:55:07;;;;;;;112.40;50.07;;;;;;;;;;729161;189;637703;-78
2021/12/06 05:57:33;;;;;;;59.07;30.27;;;;;;;;;;723483;189;919986;-77
2021/12/06 05:59:58;;;;;;;66.70;34.25;;;;;;;;;;719250;189;919325;-77
2021/12/06 06:02:24;;;;;;;68.63;31.43;;;;;;;;;;724750;189;918287;-78
2021/12/06 06:04:50;;;;;;;56.97;29.63;;;;;;;;;;731047;189;893967;-77
2021/12/06 06:07:16;;;;;;;51.73;27.60;;;;;;;;;;724983;190;919418;-77
2021/12/06 06:09:42;;;;;;;72.93;35.20;;;;;;;;;;725398;189;919313;-78
2021/12/06 06:12:08;;;;;;;53.30;29.47;;;;;;;;;;728659;189;917622;-77
2021/12/06 06:14:33;;;;;;;59.67;28.30;;;;;;;;;;722285;189;918443;-78
2021/12/06 06:17:08;;;;;;;68.40;29.00;;;;;;;;;;730971;188;918316;-79
2021/12/06 06:19:25;;;;;;;61.00;28.60;;;;;;;;;;734927;189;918289;-79
2021/12/06 06:21:51;;;;;;;50.20;26.07;;;;;;;;;;726857;189;918417;-79
2021/12/06 06:24:17;;;;;;;59.30;30.77;;;;;;;;;;732432;189;900664;-79
2021/12/06 06:26:43;;;;;;;66.03;31.12;;;;;;;;;;731010;189;816831;-79
2021/12/06 06:29:09;;;;;;;64.63;33.63;;;;;;;;;;734366;189;919074;-78
2021/12/06 06:31:34;;;;;;;54.23;26.00;;;;;;;;;;725015;189;919111;-78
2021/12/06 06:34:00;;;;;;;65.50;33.03;;;;;;;;;;721936;189;1021291;-79
2021/12/06 06:36:26;;;;;;;63.93;30.77;;;;;;;;;;727038;189;1022241;-78
2021/12/06 06:38:52;;;;;;;52.50;25.10;;;;;;;;;;730891;189;917737;-78
2021/12/06 06:41:18;;;;;;;79.43;38.87;;;;;;;;;;728378;189;905301;-79
2021/12/06 06:43:44;;;;;;;60.60;27.77;;;;;;;;;;731729;189;918416;-79
2021/12/06 06:46:09;;;;;;;58.58;28.83;;;;;;;;;;729763;189;918010;-78
2021/12/06 06:48:35;;;;;;;107.83;46.67;;;;;;;;;;722193;189;918582;-79
2021/12/06 06:51:01;;;;;;;55.47;28.77;;;;;;;;;;724872;186;918602;-78
2021/12/06 06:53:27;;;;;;;63.77;35.60;;;;;;;;;;734193;187;919278;-79
2021/12/06 06:55:53;;;;;;;63.23;30.20;;;;;;;;;;726455;190;921204;-79
2021/12/06 06:58:19;;;;;;;62.90;29.12;;;;;;;;;;726502;190;918431;-79
2021/12/06 07:00:45;;;;;;;66.87;31.37;;;;;;;;;;728417;190;813981;-79
2021/12/06 07:03:10;;;;;;;62.30;29.13;;;;;;;;;;720851;190;918288;-78
2021/12/06 07:05:36;;;;;;;70.37;36.47;;;;;;;;;;726360;186;919056;-71
2021/12/06 07:08:02;;;;;;;70.10;36.30;;;;;;;;;;730606;190;633654;-71
2021/12/06 07:10:28;;;;;;;71.07;32.77;;;;;;;;;;729325;189;634700;-72
2021/12/06 07:12:54;;;;;;;60.47;32.00;;;;;;;;;;729713;186;624130;-71
2021/12/06 07:15:20;;;;;;;76.53;35.27;;;;;;;;;;731830;190;633285;-71
2021/12/06 07:17:46;;;;;;;66.93;33.07;;;;;;;;;;732782;189;919752;-70
2021/12/06 07:20:11;;;;;;;61.23;34.63;;;;;;;;;;719007;190;919125;-71
2021/12/06 07:22:37;;;;;;;62.00;30.20;;;;;;;;;;721703;190;918991;-71
2021/12/06 07:25:03;;;;;;;58.37;29.50;;;;;;;;;;726243;189;916749;-71
2021/12/06 07:27:29;;;;;;;57.63;31.37;;;;;;;;;;731012;189;922590;-71
2021/12/06 07:29:55;;;;;;;66.20;30.53;;;;;;;;;;724490;189;919313;-71
2021/12/06 07:32:21;;;;;;;65.87;35.10;;;;;;;;;;728500;189;919099;-71
2021/12/06 07:34:49;;;;;;;60.33;32.20;;;;;;;;;;719395;189;919190;-69
2021/12/06 07:37:12;;;;;;;56.30;30.02;;;;;;;;;;723023;189;919443;-71
2021/12/06 07:39:38;;;;;;;63.60;32.23;;;;;;;;;;733318;189;919096;-70
2021/12/06 07:42:04;;;;;;;66.23;33.77;;;;;;;;;;718025;189;919148;-70
2021/12/06 07:44:31;;;;;;;66.37;32.80;;;;;;;;;;733596;189;918470;-70
2021/12/06 07:46:56;;;;;;;70.20;33.43;;;;;;;;;;721271;190;918936;-71
2021/12/06 07:49:22;;;;;;;72.03;34.70;;;;;;;;;;718244;189;919219;-71
2021/12/06 07:51:47;;;;;;;65.80;33.77;;;;;;;;;;711495;193;919214;-71
2021/12/06 07:54:13;;;;;;;77.57;35.50;;;;;;;;;;730956;189;919115;-71
2021/12/06 07:56:39;;;;;;;70.80;35.50;;;;;;;;;;734089;189;1309714;-71
2021/12/06 07:59:05;;;;;;;87.23;37.30;;;;;;;;;;728245;189;919127;-71
2021/12/06 08:01:31;;;;;;;71.32;34.55;;;;;;;;;;726103;189;920025;-70
2021/12/06 08:03:59;;;;;;;98.23;53.73;;;;;;;;;;726398;189;919138;-69
2021/12/06 08:06:23;;;;;;;109.37;60.00;;;;;;;;;;726267;189;919027;-71
2021/12/06 08:08:48;;;;;;;106.43;55.67;;;;;;;;;;720512;189;923015;-70
2021/12/06 08:11:15;;;;;;;75.03;39.97;;;;;;;;;;722578;189;919297;-69
2021/12/06 08:13:43;;;;;;;74.07;37.90;;;;;;;;;;730936;187;920534;-71
2021/12/06 08:16:07;;;;;;;67.28;36.17;;;;;;;;;;729979;189;918360;-70
2021/12/06 08:18:33;;;;;;;80.40;41.93;;;;;;;;;;719887;189;918571;-70
2021/12/06 08:21:00;;;;;;;101.12;50.20;;;;;;;;;;726437;189;898270;-70
2021/12/06 08:23:25;;;;;;;76.23;36.20;;;;;;;;;;724519;189;916123;-70
2021/12/06 08:25:51;;;;;;;67.83;33.80;;;;;;;;;;723830;189;915014;-71
2021/12/06 08:28:17;;;;;;;72.67;38.07;;;;;;;;;;732818;189;920251;-70
2021/12/06 08:30:42;;;;;;;75.50;37.23;;;;;;;;;;719383;189;940233;-71
2021/12/06 08:33:08;;;;;;;75.27;35.33;;;;;;;;;;723530;189;919277;-71
2021/12/06 08:35:34;;;;;;;82.10;36.80;;;;;;;;;;733288;189;915854;-71
2021/12/06 08:38:00;;;;;;;78.97;37.50;;;;;;;;;;733730;189;919065;-71
2021/12/06 08:40:26;;;;;;;71.67;34.10;;;;;;;;;;722624;189;919445;-71
2021/12/06 08:42:52;;;;;;;82.57;36.03;;;;;;;;;;721104;189;919752;-70
2021/12/06 08:45:18;;;;;;;73.87;35.60;;;;;;;;;;733897;189;918501;-70
2021/12/06 08:47:43;;;;;;;78.37;38.03;;;;;;;;;;733276;189;919063;-71
2021/12/06 08:50:09;;;;;;;86.23;40.23;;;;;;;;;;728397;189;919475;-71
2021/12/06 08:52:36;;;;;;;70.83;37.70;;;;;;;;;;729377;189;1021296;-71
2021/12/06 08:55:01;;;;;;;76.73;40.37;;;;;;;;;;725822;189;917803;-70
2021/12/06 08:57:27;;;;;;;73.80;34.80;;;;;;;;;;730878;189;917910;-71
2021/12/06 08:59:53;;;;;;;69.33;35.93;;;;;;;;;;736089;189;919396;-71
2021/12/06 09:02:20;;;;;;;83.90;43.03;;;;;;;;;;730011;186;918924;-71
2021/12/06 09:04:44;;;;;;;88.03;39.27;;;;;;;;;;720372;189;919518;-71
2021/12/06 09:07:12;;;;;;;76.30;39.93;;;;;;;;;;724885;189;943223;-71
2021/12/06 09:09:36;;;;;;;83.40;40.50;;;;;;;;;;732011;189;919120;-72
2021/12/06 09:12:02;;;;;;;85.30;41.67;;;;;;;;;;728545;189;918760;-72
2021/12/06 09:14:28;;;;;;;112.32;48.38;;;;;;;;;;731294;189;920018;-72
2021/12/06 09:16:54;;;;;;;90.03;42.63;;;;;;;;;;726513;189;814421;-73
2021/12/06 09:19:19;;;;;;;91.60;43.80;;;;;;;;;;723183;189;923055;-72
2021/12/06 09:21:45;;;;;;;106.07;47.43;;;;;;;;;;730151;189;919407;-72
2021/12/06 09:24:12;;;;;;;92.50;43.83;;;;;;;;;;724473;189;918243;-72
2021/12/06 09:26:38;;;;;;;83.43;42.90;;;;;;;;;;726775;189;919075;-72
2021/12/06 09:29:04;;;;;;;95.60;41.30;;;;;;;;;;734139;189;919197;-72
2021/12/06 09:31:29;;;;;;;77.20;41.97;;;;;;;;;;723545;189;919325;-72
2021/12/06 09:33:55;;;;;;;76.87;37.70;;;;;;;;;;732925;189;920612;-72
2021/12/06 09:36:21;;;;;;;67.37;33.67;;;;;;;;;;725644;189;919146;-73
2021/12/06 09:38:47;;;;;;;57.77;32.83;;;;;;;;;;728194;189;919491;-74
2021/12/06 09:41:13;;;;;;;68.97;35.10;;;;;;;;;;736292;189;917670;-75
2021/12/06 09:43:39;;;;;;;88.30;39.73;;;;;;;;;;730547;189;918819;-76
2021/12/06 09:46:04;;;;;;;78.30;40.90;;;;;;;;;;729078;187;919320;-76
2021/12/06 09:48:30;;;;;;;93.60;48.27;;;;;;;;;;734456;189;918895;-75
2021/12/06 09:50:56;;;;;;;98.67;45.70;;;;;;;;;;724357;189;932104;-75
2021/12/06 09:53:22;;;;;;;78.80;43.33;;;;;;;;;;731671;189;917959;-75
2021/12/06 09:55:48;;;;;;;62.63;35.00;;;;;;;;;;739467;189;919053;-75
2021/12/06 09:58:14;;;;;;;81.80;43.73;;;;;;;;;;731009;189;918496;-75
2021/12/06 10:00:41;;;;;;;57.33;30.67;;;;;;;;;;727840;189;918945;-74
2021/12/06 10:03:05;;;;;;;69.13;33.10;;;;;;;;;;727259;189;919597;-74
2021/12/06 10:05:31;;;;;;;53.77;31.10;;;;;;;;;;731807;189;919225;-74
2021/12/06 10:07:57;;;;;;;53.33;29.27;;;;;;;;;;728766;188;918077;-74
2021/12/06 10:10:23;;;;;;;55.70;32.10;;;;;;;;;;730287;189;918634;-74
2021/12/06 10:12:52;;;;;;;64.60;34.00;;;;;;;;;;724771;189;918947;-74
2021/12/06 10:15:15;;;;;;;70.80;38.70;;;;;;;;;;722118;189;919320;-75
2021/12/06 10:17:41;;;;;;;51.73;25.93;;;;;;;;;;721277;189;919333;-75
2021/12/06 10:20:08;;;;;;;41.47;23.57;;;;;;;;;;723334;189;918944;-75
2021/12/06 10:22:33;;;;;;;45.90;24.23;;;;;;;;;;721251;189;920295;-73
2021/12/06 10:24:59;;;;;;;42.47;23.03;;;;;;;;;;718018;189;918976;-73
2021/12/06 10:27:24;;;;;;;42.93;20.07;;;;;;;;;;722153;189;920396;-70
2021/12/06 10:29:53;;;;;;;52.70;24.80;;;;;;;;;;726041;189;920290;-74
2021/12/06 10:32:16;;;;;;;49.53;24.17;;;;;;;;;;721758;189;917488;-74
2021/12/06 10:34:43;;;;;;;47.03;24.80;;;;;;;;;;716780;189;918863;-75
2021/12/06 10:37:09;;;;;;;41.80;25.30;;;;;;;;;;729381;189;920307;-74
2021/12/06 10:39:34;;;;;;;38.90;22.03;;;;;;;;;;720065;189;918619;-74
2021/12/06 10:42:00;;;;;;;40.47;22.93;;;;;;;;;;729162;189;918286;-75
2021/12/06 10:44:26;;;;;;;46.50;24.75;;;;;;;;;;725301;189;914778;-74
2021/12/06 10:46:52;;;;;;;79.00;36.43;;;;;;;;;;725834;189;924290;-73
2021/12/06 10:49:18;;;;;;;71.63;37.60;;;;;;;;;;725151;189;915038;-71
2021/12/06 10:51:44;;;;;;;47.30;25.43;;;;;;;;;;724643;189;965800;-74
2021/12/06 10:54:16;;;;;;;43.50;26.70;;;;;;;;;;732951;189;921129;-74
2021/12/06 10:56:43;;;;;;;44.90;23.50;;;;;;;;;;706949;197;915342;-73
2021/12/06 10:59:07;;;;;;;53.90;30.00;;;;;;;;;;715779;193;1014739;-73
2021/12/06 11:01:31;;;;;;;41.20;21.90;;;;;;;;;;715216;193;1005145;-73
2021/12/06 11:03:57;;;;;;;41.70;25.00;;;;;;;;;;723286;189;906142;-72
2021/12/06 11:06:25;;;;;;;52.07;25.57;;;;;;;;;;727135;189;911589;-71
2021/12/06 11:08:50;;;;;;;44.63;25.25;;;;;;;;;;728245;189;915881;-70
2021/12/06 11:11:16;;;;;;;43.97;23.03;;;;;;;;;;727853;186;916257;-73
2021/12/06 11:13:42;;;;;;;53.90;29.70;;;;;;;;;;732435;189;915952;-72
2021/12/06 11:16:10;;;;;;;43.83;24.17;;;;;;;;;;722662;189;919523;-72
2021/12/06 11:18:37;;;;;;;50.73;25.80;;;;;;;;;;732436;189;915383;-71
2021/12/06 11:21:03;;;;;;;49.57;25.20;;;;;;;;;;723854;189;924169;-72
2021/12/06 11:23:29;;;;;;;42.57;27.10;;;;;;;;;;729929;189;920223;-72
2021/12/06 11:25:58;;;;;;;47.03;27.63;;;;;;;;;;739527;189;625238;-73
2021/12/06 11:28:24;;;;;;;45.60;25.80;;;;;;;;;;733713;189;915776;-72
2021/12/06 11:30:56;;;;;;;38.30;23.70;;;;;;;;;;729451;186;911278;-73
2021/12/06 11:33:25;;;;;;;28.93;19.53;;;;;;;;;;728151;190;916784;-71
2021/12/06 11:35:51;;;;;;;37.57;20.60;;;;;;;;;;728414;188;1012688;-72
2021/12/06 11:38:16;;;;;;;38.30;23.20;;;;;;;;;;721517;190;916439;-72
2021/12/06 11:40:42;;;;;;;35.40;21.63;;;;;;;;;;719803;189;1018278;-72
2021/12/06 11:43:08;;;;;;;43.10;23.00;;;;;;;;;;724523;189;626610;-72
2021/12/06 11:45:34;;;;;;;42.13;23.90;;;;;;;;;;730155;189;915298;-72
2021/12/06 11:48:01;;;;;;;54.70;29.17;;;;;;;;;;721620;189;1012778;-71
2021/12/06 11:50:27;;;;;;;32.13;20.07;;;;;;;;;;728882;189;918734;-73
2021/12/06 11:52:53;;;;;;;42.87;22.97;;;;;;;;;;722837;189;918862;-73
2021/12/06 11:55:19;;;;;;;37.80;23.63;;;;;;;;;;724736;189;962938;-70
2021/12/06 11:57:46;;;;;;;43.73;26.30;;;;;;;;;;723052;189;919502;-71
2021/12/06 12:00:11;;;;;;;43.10;22.80;;;;;;;;;;728394;189;919308;-70
2021/12/06 12:02:37;;;;;;;39.40;22.33;;;;;;;;;;719581;190;910514;-70
2021/12/06 12:05:08;;;;;;;39.30;23.70;;;;;;;;;;722282;192;919489;-72
2021/12/06 12:07:40;;;;;;;39.17;23.80;;;;;;;;;;722605;189;908381;-71
2021/12/06 12:10:06;;;;;;;42.20;24.87;;;;;;;;;;730142;191;912579;-71
2021/12/06 12:12:32;;;;;;;43.93;26.27;;;;;;;;;;723139;189;920040;-70
2021/12/06 12:14:59;;;;;;;38.30;23.80;;;;;;;;;;727805;191;912655;-71
2021/12/06 12:17:24;;;;;;;44.43;24.93;;;;;;;;;;723817;189;912711;-71
2021/12/06 12:19:50;;;;;;;51.80;28.05;;;;;;;;;;735353;189;912804;-70
2021/12/06 12:22:16;;;;;;;48.30;28.57;;;;;;;;;;725790;189;914546;-70
2021/12/06 12:24:45;;;;;;;47.33;30.07;;;;;;;;;;727579;189;921453;-71
2021/12/06 12:27:21;;;;;;;56.60;31.73;;;;;;;;;;732695;189;919026;-70
2021/12/06 12:29:34;;;;;;;53.50;30.37;;;;;;;;;;722083;190;918776;-70
2021/12/06 12:31:59;;;;;;;49.95;28.92;;;;;;;;;;719526;189;919058;-70
2021/12/06 12:34:25;;;;;;;45.97;26.47;;;;;;;;;;726050;189;918541;-70
2021/12/06 12:36:51;;;;;;;63.87;29.10;;;;;;;;;;722625;190;919405;-70
2021/12/06 12:39:17;;;;;;;53.78;30.05;;;;;;;;;;727570;189;919453;-70
2021/12/06 12:41:47;;;;;;;55.47;30.03;;;;;;;;;;726676;189;918682;-71
2021/12/06 12:44:12;;;;;;;53.37;31.37;;;;;;;;;;735936;189;919306;-70
2021/12/06 12:46:38;;;;;;;52.30;30.30;;;;;;;;;;728615;189;918813;-70
2021/12/06 12:49:04;;;;;;;53.45;28.67;;;;;;;;;;723184;189;919543;-70
2021/12/06 12:51:30;;;;;;;115.07;44.00;;;;;;;;;;731177;189;919269;-70
2021/12/06 12:54:13;;;;;;;78.70;38.00;;;;;;;;;;726813;189;919176;-70
2021/12/06 12:56:41;;;;;;;62.53;31.40;;;;;;;;;;731829;189;919328;-70
2021/12/06 12:59:13;;;;;;;57.17;29.60;;;;;;;;;;722007;189;918869;-71
2021/12/06 13:01:45;;;;;;;50.17;29.30;;;;;;;;;;718554;189;943883;-70
2021/12/06 13:04:05;;;;;;;50.57;29.70;;;;;;;;;;733662;189;625427;-70
2021/12/06 13:06:31;;;;;;;55.83;26.13;;;;;;;;;;735491;189;624787;-70
2021/12/06 13:08:57;;;;;;;54.33;28.17;;;;;;;;;;722735;189;916995;-70
2021/12/06 13:11:24;;;;;;;46.20;26.53;;;;;;;;;;729505;189;903372;-70
2021/12/06 13:13:50;;;;;;;43.97;25.30;;;;;;;;;;723079;189;913075;-70
2021/12/06 13:16:32;;;;;;;47.38;25.60;;;;;;;;;;725224;189;990663;-69
2021/12/06 13:18:56;;;;;;;49.70;28.67;;;;;;;;;;726731;189;912800;-69
2021/12/06 13:21:26;;;;;;;50.93;28.33;;;;;;;;;;732920;187;913797;-69
2021/12/06 13:23:51;;;;;;;58.60;30.15;;;;;;;;;;730381;189;918775;-69
2021/12/06 13:26:17;;;;;;;57.50;26.67;;;;;;;;;;722582;189;916446;-67
2021/12/06 13:29:04;;;;;;;45.90;25.10;;;;;;;;;;721151;189;916822;-68
2021/12/06 13:31:30;;;;;;;41.33;25.80;;;;;;;;;;724849;189;919353;-69
2021/12/06 13:33:56;;;;;;;47.03;27.20;;;;;;;;;;737499;189;916458;-69
2021/12/06 13:36:41;;;;;;;49.80;27.87;;;;;;;;;;720529;189;916850;-69
2021/12/06 13:39:06;;;;;;;47.20;25.57;;;;;;;;;;728995;189;915859;-69
2021/12/06 13:41:32;;;;;;;47.37;29.20;;;;;;;;;;720191;190;912456;-69
2021/12/06 13:44:04;;;;;;;46.23;23.90;;;;;;;;;;728522;189;912325;-70
2021/12/06 13:46:30;;;;;;;54.70;30.33;;;;;;;;;;731605;186;939663;-71
2021/12/06 13:48:55;;;;;;;55.00;30.00;;;;;;;;;;723709;189;916499;-70
2021/12/06 13:51:27;;;;;;;42.27;24.00;;;;;;;;;;725041;189;912638;-70
2021/12/06 13:53:54;;;;;;;45.85;25.62;;;;;;;;;;720543;189;918678;-69
2021/12/06 13:56:19;;;;;;;55.10;27.67;;;;;;;;;;731516;189;926399;-69
2021/12/06 13:58:45;;;;;;;40.33;24.77;;;;;;;;;;720760;189;920126;-70
2021/12/06 14:01:13;;;;;;;43.50;24.60;;;;;;;;;;725977;189;915696;-71
2021/12/06 14:03:39;;;;;;;51.28;29.58;;;;;;;;;;732283;189;928937;-70
2021/12/06 14:06:07;;;;;;;58.73;29.93;;;;;;;;;;724631;189;915100;-70